createdAt,value
2019-04-14T00:00:38.329Z,19.60
2019-04-14T00:01:38.894Z,20.10
2019-04-14T00:02:38.206Z,19.00
2019-04-14T00:03:38.992Z,19.50
2019-04-14T00:04:37.951Z,19.50
2019-04-14T00:05:38.623Z,19.00
2019-04-14T00:06:37.884Z,19.00
2019-04-14T00:07:38.481Z,19.10
2019-04-14T00:08:37.898Z,18.70
2019-04-14T00:09:38.069Z,19.30
2019-04-14T00:10:37.894Z,19.20
2019-04-14T00:11:38.691Z,19.90
2019-04-14T00:12:38.404Z,19.80
2019-04-14T00:13:37.834Z,19.70
2019-04-14T00:14:38.256Z,20.00
2019-04-14T00:15:42.697Z,19.20
2019-04-14T00:16:38.794Z,20.20
2019-04-14T00:17:37.768Z,20.10
2019-04-14T00:18:38.257Z,20.60
2019-04-14T00:19:37.748Z,19.90
2019-04-14T00:20:38.235Z,20.30
2019-04-14T00:21:38.864Z,20.80
2019-04-14T00:22:38.124Z,20.30
2019-04-14T00:23:37.706Z,20.70
2019-04-14T00:24:38.126Z,19.90
2019-04-14T00:25:37.694Z,20.00
2019-04-14T00:26:37.988Z,20.90
2019-04-14T00:27:38.546Z,20.40
2019-04-14T00:28:38.274Z,19.60
2019-04-14T00:29:37.669Z,19.50
2019-04-14T00:30:38.243Z,21.00
2019-04-14T00:31:37.647Z,19.90
2019-04-14T00:32:37.924Z,20.20
2019-04-14T00:33:38.821Z,20.70
2019-04-14T00:34:37.684Z,20.70
2019-04-14T00:35:38.567Z,22.00
2019-04-14T00:36:37.590Z,20.30
2019-04-14T00:37:38.061Z,21.30
2019-04-14T00:38:37.549Z,19.90
2019-04-14T00:39:37.955Z,20.50
2019-04-14T00:40:37.552Z,21.60
2019-04-14T00:41:44.816Z,20.70
2019-04-14T00:42:38.790Z,20.50
2019-04-14T00:43:37.510Z,19.80
2019-04-14T00:44:38.666Z,20.30
2019-04-14T00:45:45.264Z,20.60
2019-04-14T00:46:38.793Z,19.70
2019-04-14T00:47:49.825Z,20.00
2019-04-14T00:48:38.740Z,20.10
2019-04-14T00:49:37.630Z,19.20
2019-04-14T00:50:38.679Z,19.80
2019-04-14T00:51:39.340Z,20.70
2019-04-14T00:52:37.446Z,19.90
2019-04-14T00:53:38.178Z,20.20
2019-04-14T00:54:37.411Z,20.50
2019-04-14T00:55:37.994Z,19.90
2019-04-14T00:56:37.362Z,20.20
2019-04-14T00:57:37.673Z,21.40
2019-04-14T00:58:37.351Z,20.10
2019-04-14T00:59:37.616Z,22.00
2019-04-14T01:00:38.593Z,22.40
2019-04-14T01:01:37.307Z,20.90
2019-04-14T01:02:38.489Z,21.40
2019-04-14T01:03:37.391Z,21.60
2019-04-14T01:04:38.291Z,20.20
2019-04-14T01:05:37.519Z,21.40
2019-04-14T01:06:38.259Z,21.10
2019-04-14T01:07:37.254Z,21.90
2019-04-14T01:08:38.095Z,21.60
2019-04-14T01:09:37.273Z,22.90
2019-04-14T01:10:37.228Z,21.90
2019-04-14T01:11:37.851Z,21.40
2019-04-14T01:12:37.193Z,21.00
2019-04-14T01:13:37.496Z,21.60
2019-04-14T01:14:37.272Z,21.20
2019-04-14T01:15:50.120Z,22.50
2019-04-14T01:16:38.613Z,21.80
2019-04-14T01:17:37.382Z,20.60
2019-04-14T01:18:37.130Z,22.10
2019-04-14T01:19:37.384Z,21.90
2019-04-14T01:20:38.259Z,22.10
2019-04-14T01:21:37.141Z,22.40
2019-04-14T01:22:38.085Z,21.70
2019-04-14T01:23:37.077Z,22.40
2019-04-14T01:24:38.124Z,22.20
2019-04-14T01:25:37.058Z,22.60
2019-04-14T01:26:37.800Z,22.00
2019-04-14T01:27:37.049Z,21.50
2019-04-14T01:28:37.561Z,23.70
2019-04-14T01:29:38.372Z,23.20
2019-04-14T01:30:37.292Z,22.40
2019-04-14T01:31:38.150Z,21.40
2019-04-14T01:32:37.233Z,23.20
2019-04-14T01:33:37.901Z,22.20
2019-04-14T01:34:37.104Z,22.10
2019-04-14T01:35:37.901Z,22.50
2019-04-14T01:36:36.960Z,23.40
2019-04-14T01:37:37.607Z,22.50
2019-04-14T01:38:36.933Z,22.60
2019-04-14T01:39:37.226Z,23.20
2019-04-14T01:40:38.048Z,22.40
2019-04-14T01:41:36.901Z,22.30
2019-04-14T01:42:37.736Z,21.30
2019-04-14T01:43:36.868Z,21.50
2019-04-14T01:44:37.367Z,21.20
2019-04-14T01:45:38.120Z,21.00
2019-04-14T01:46:37.417Z,21.30
2019-04-14T01:47:37.718Z,22.10
2019-04-14T01:48:36.816Z,20.50
2019-04-14T01:49:37.633Z,21.50
2019-04-14T01:50:36.799Z,21.30
2019-04-14T01:51:37.410Z,21.00
2019-04-14T01:52:36.798Z,22.90
2019-04-14T01:53:37.843Z,21.10
2019-04-14T01:54:36.753Z,21.80
2019-04-14T01:55:37.328Z,21.00
2019-04-14T01:56:36.732Z,22.10
2019-04-14T01:57:37.076Z,21.80
2019-04-14T01:58:36.762Z,21.80
2019-04-14T01:59:36.952Z,20.60
2019-04-14T02:00:36.693Z,23.50
2019-04-14T02:01:36.798Z,22.20
2019-04-14T02:02:37.712Z,21.40
2019-04-14T02:03:36.716Z,21.90
2019-04-14T02:04:37.719Z,21.60
2019-04-14T02:05:36.637Z,20.30
2019-04-14T02:06:37.619Z,21.30
2019-04-14T02:07:36.624Z,21.10
2019-04-14T02:08:37.231Z,21.00
2019-04-14T02:09:37.830Z,21.60
2019-04-14T02:10:36.894Z,20.60
2019-04-14T02:11:37.698Z,21.20
2019-04-14T02:12:36.632Z,20.90
2019-04-14T02:13:37.569Z,21.40
2019-04-14T02:14:36.573Z,21.80
2019-04-14T02:15:37.407Z,20.90
2019-04-14T02:16:44.299Z,23.30
2019-04-14T02:17:37.511Z,21.70
2019-04-14T02:18:36.541Z,21.00
2019-04-14T02:19:37.172Z,22.10
2019-04-14T02:20:36.482Z,22.10
2019-04-14T02:21:36.737Z,22.10
2019-04-14T02:22:37.609Z,20.70
2019-04-14T02:23:36.642Z,21.80
2019-04-14T02:24:37.493Z,22.50
2019-04-14T02:25:36.450Z,23.60
2019-04-14T02:26:37.346Z,22.10
2019-04-14T02:27:36.421Z,22.10
2019-04-14T02:28:37.531Z,23.10
2019-04-14T02:29:36.408Z,22.80
2019-04-14T02:30:45.732Z,21.10
2019-04-14T02:32:05.678Z,22.20
2019-04-14T02:33:09.105Z,23.10
2019-04-14T02:34:02.275Z,21.60
2019-04-14T02:35:02.897Z,22.70
2019-04-14T02:36:17.954Z,22.40
2019-04-14T02:37:06.606Z,22.90
2019-04-14T02:38:13.806Z,21.80
2019-04-14T02:39:06.148Z,21.70
2019-04-14T02:40:04.052Z,22.30
2019-04-14T02:42:19.411Z,21.80
2019-04-14T02:43:04.075Z,22.10
2019-04-14T02:44:04.885Z,22.60
2019-04-14T02:45:08.632Z,22.70
2019-04-14T02:47:36.383Z,23.80
2019-04-14T02:51:04.229Z,23.20
2019-04-14T02:52:04.690Z,22.80
2019-04-14T02:53:09.109Z,22.60
2019-04-14T02:54:10.056Z,22.20
2019-04-14T02:56:08.271Z,22.50
2019-04-14T02:58:04.347Z,22.10
2019-04-14T03:01:11.838Z,21.30
2019-04-14T03:02:19.651Z,21.40
2019-04-14T03:04:01.472Z,20.90
2019-04-14T03:07:05.480Z,22.90
2019-04-14T03:07:59.909Z,23.30
2019-04-14T03:09:13.855Z,22.30
2019-04-14T03:10:22.277Z,23.20
2019-04-14T03:11:01.312Z,22.60
2019-04-14T03:12:03.013Z,22.60
2019-04-14T03:13:06.820Z,23.30
2019-04-14T03:15:01.369Z,22.60
2019-04-14T03:16:02.170Z,22.10
2019-04-14T03:17:14.658Z,22.70
2019-04-14T03:18:57.918Z,22.80
2019-04-14T03:21:04.398Z,22.40
2019-04-14T03:22:13.111Z,22.90
2019-04-14T03:22:55.676Z,23.10
2019-04-14T03:24:06.052Z,23.00
2019-04-14T03:24:50.390Z,23.10
2019-04-14T03:25:57.410Z,23.60
2019-04-14T03:27:24.779Z,22.10
2019-04-14T03:28:04.168Z,23.00
2019-04-14T03:28:56.467Z,24.30
2019-04-14T03:31:24.631Z,23.10
2019-04-14T03:34:30.367Z,24.10
2019-04-14T03:35:23.256Z,22.00
2019-04-14T03:38:12.836Z,23.50
2019-04-14T03:39:05.989Z,22.70
2019-04-14T03:39:57.264Z,22.40
2019-04-14T03:41:08.885Z,21.40
2019-04-14T03:42:01.623Z,22.80
2019-04-14T03:44:07.166Z,22.30
2019-04-14T03:45:04.177Z,22.70
2019-04-14T03:46:12.863Z,22.90
2019-04-14T03:48:34.439Z,23.80
2019-04-14T03:50:06.141Z,22.30
2019-04-14T03:51:06.828Z,22.70
2019-04-14T03:52:02.489Z,23.90
2019-04-14T03:53:05.889Z,22.40
2019-04-14T03:53:58.678Z,23.30
2019-04-14T03:54:55.250Z,24.10
2019-04-14T03:55:45.326Z,23.30
2019-04-14T03:56:37.545Z,22.80
2019-04-14T03:57:36.620Z,22.90
2019-04-14T03:58:35.773Z,23.10
2019-04-14T03:59:36.669Z,22.80
2019-04-14T04:00:35.672Z,23.60
2019-04-14T04:01:36.654Z,25.10
2019-04-14T04:02:35.949Z,24.10
2019-04-14T04:03:35.413Z,22.80
2019-04-14T04:04:35.851Z,23.10
2019-04-14T04:05:36.675Z,22.60
2019-04-14T04:06:35.641Z,22.50
2019-04-14T04:07:36.411Z,24.60
2019-04-14T04:08:35.542Z,24.30
2019-04-14T04:09:36.432Z,23.90
2019-04-14T04:10:35.702Z,23.00
2019-04-14T04:11:36.544Z,23.40
2019-04-14T04:12:35.763Z,23.80
2019-04-14T04:13:36.558Z,24.00
2019-04-14T04:14:35.732Z,24.20
2019-04-14T04:15:36.427Z,24.10
2019-04-14T04:16:35.514Z,23.50
2019-04-14T04:17:36.294Z,23.80
2019-04-14T04:18:47.449Z,23.80
2019-04-14T04:19:36.239Z,24.80
2019-04-14T04:20:35.267Z,24.50
2019-04-14T04:21:35.569Z,25.20
2019-04-14T04:22:35.198Z,23.80
2019-04-14T04:23:35.652Z,23.40
2019-04-14T04:24:35.218Z,24.80
2019-04-14T04:25:35.372Z,24.30
2019-04-14T04:26:36.476Z,24.60
2019-04-14T04:27:35.243Z,24.20
2019-04-14T04:28:36.326Z,24.40
2019-04-14T04:29:35.159Z,24.70
2019-04-14T04:30:36.209Z,24.80
2019-04-14T04:31:35.118Z,24.10
2019-04-14T04:32:36.238Z,25.30
2019-04-14T04:33:35.080Z,23.90
2019-04-14T04:34:35.859Z,25.40
2019-04-14T04:35:35.063Z,23.70
2019-04-14T04:36:35.643Z,25.10
2019-04-14T04:37:35.040Z,25.80
2019-04-14T04:38:35.582Z,25.30
2019-04-14T04:39:36.563Z,24.80
2019-04-14T04:40:35.344Z,24.50
2019-04-14T04:41:36.328Z,25.50
2019-04-14T04:42:35.169Z,25.50
2019-04-14T04:43:34.986Z,25.70
2019-04-14T04:44:35.638Z,27.40
2019-04-14T04:45:34.961Z,26.80
2019-04-14T04:46:35.167Z,27.70
2019-04-14T04:47:36.168Z,27.00
2019-04-14T04:48:35.022Z,25.80
2019-04-14T04:49:36.059Z,25.60
2019-04-14T04:50:34.916Z,25.80
2019-04-14T04:51:35.702Z,26.30
2019-04-14T04:52:34.891Z,26.20
2019-04-14T04:53:35.417Z,27.10
2019-04-14T04:54:34.875Z,28.00
2019-04-14T04:55:35.167Z,25.60
2019-04-14T04:56:34.840Z,25.50
2019-04-14T04:57:35.166Z,26.00
2019-04-14T04:58:34.891Z,25.80
2019-04-14T04:59:34.824Z,26.80
2019-04-14T05:00:35.259Z,27.60
2019-04-14T05:01:34.831Z,26.70
2019-04-14T05:02:35.289Z,25.80
2019-04-14T05:03:34.766Z,26.90
2019-04-14T05:04:35.106Z,25.60
2019-04-14T05:05:34.758Z,27.10
2019-04-14T05:06:35.124Z,26.50
2019-04-14T05:07:34.763Z,26.40
2019-04-14T05:08:34.860Z,27.10
2019-04-14T05:09:34.703Z,27.50
2019-04-14T05:10:34.999Z,26.60
2019-04-14T05:11:34.686Z,26.90
2019-04-14T05:12:34.919Z,26.10
2019-04-14T05:13:35.901Z,26.70
2019-04-14T05:14:34.805Z,26.60
2019-04-14T05:15:35.562Z,27.00
2019-04-14T05:16:34.655Z,27.00
2019-04-14T05:17:34.620Z,27.60
2019-04-14T05:18:35.554Z,27.00
2019-04-14T05:19:36.547Z,26.70
2019-04-14T05:20:35.605Z,26.80
2019-04-14T05:21:34.583Z,26.60
2019-04-14T05:22:35.393Z,26.00
2019-04-14T05:23:34.562Z,25.80
2019-04-14T05:24:35.351Z,26.90
2019-04-14T05:25:34.547Z,27.70
2019-04-14T05:26:35.132Z,27.80
2019-04-14T05:27:34.551Z,27.80
2019-04-14T05:28:35.280Z,27.60
2019-04-14T05:29:34.509Z,28.70
2019-04-14T05:30:34.988Z,27.70
2019-04-14T05:31:34.476Z,27.70
2019-04-14T05:32:34.774Z,27.30
2019-04-14T05:33:34.475Z,27.10
2019-04-14T05:34:34.769Z,27.10
2019-04-14T05:35:34.447Z,28.50
2019-04-14T05:36:34.648Z,28.30
2019-04-14T05:37:35.463Z,27.40
2019-04-14T05:38:35.505Z,27.90
2019-04-14T05:39:35.421Z,28.30
2019-04-14T05:40:34.413Z,27.50
2019-04-14T05:41:35.415Z,27.10
2019-04-14T05:42:34.359Z,27.20
2019-04-14T05:43:43.843Z,27.00
2019-04-14T05:44:36.107Z,27.50
2019-04-14T05:45:35.119Z,27.20
2019-04-14T05:46:34.321Z,28.00
2019-04-14T05:47:34.997Z,28.00
2019-04-14T05:48:34.353Z,28.80
2019-04-14T05:49:41.108Z,28.00
2019-04-14T05:50:35.695Z,28.30
2019-04-14T05:51:35.094Z,29.20
2019-04-14T05:52:34.258Z,28.70
2019-04-14T05:53:35.120Z,31.10
2019-04-14T05:54:34.252Z,28.10
2019-04-14T05:55:35.169Z,29.30
2019-04-14T05:56:36.118Z,27.90
2019-04-14T05:57:35.168Z,28.50
2019-04-14T05:58:34.199Z,27.90
2019-04-14T05:59:35.235Z,27.60
2019-04-14T06:00:34.260Z,28.00
2019-04-14T06:01:34.185Z,29.30
2019-04-14T06:02:35.508Z,27.70
2019-04-14T06:03:34.280Z,28.00
2019-04-14T06:04:35.235Z,27.50
2019-04-14T06:05:34.141Z,28.60
2019-04-14T06:06:34.116Z,27.80
2019-04-14T06:07:34.169Z,28.50
2019-04-14T06:08:34.099Z,29.30
2019-04-14T06:09:34.083Z,27.40
2019-04-14T06:10:34.081Z,27.90
2019-04-14T06:11:34.082Z,27.50
2019-04-14T06:12:34.050Z,27.60
2019-04-14T06:13:34.046Z,28.80
2019-04-14T06:14:34.041Z,27.80
2019-04-14T06:15:34.021Z,27.70
2019-04-14T06:16:34.015Z,28.20
2019-04-14T06:17:34.008Z,25.90
2019-04-14T06:18:33.989Z,27.30
2019-04-14T06:19:39.041Z,26.80
2019-04-14T06:20:34.966Z,28.00
2019-04-14T06:21:33.966Z,27.20
2019-04-14T06:22:33.957Z,27.20
2019-04-14T06:23:33.934Z,26.80
2019-04-14T06:24:33.939Z,26.80
2019-04-14T06:25:36.264Z,27.30
2019-04-14T06:26:33.952Z,25.90
2019-04-14T06:27:33.893Z,25.70
2019-04-14T06:28:33.911Z,26.70
2019-04-14T06:29:33.871Z,26.50
2019-04-14T06:30:33.882Z,26.10
2019-04-14T06:31:33.860Z,26.10
2019-04-14T06:32:33.843Z,25.90
2019-04-14T06:33:33.844Z,27.10
2019-04-14T06:34:33.920Z,26.20
2019-04-14T06:35:33.844Z,27.00
2019-04-14T06:36:33.826Z,27.30
2019-04-14T06:37:33.825Z,26.70
2019-04-14T06:38:33.812Z,27.60
2019-04-14T06:39:33.770Z,26.40
2019-04-14T06:40:33.781Z,26.70
2019-04-14T06:41:33.745Z,26.80
2019-04-14T06:42:33.856Z,26.20
2019-04-14T06:43:33.753Z,26.10
2019-04-14T06:44:33.736Z,26.10
2019-04-14T06:45:33.727Z,25.90
2019-04-14T06:46:33.725Z,25.60
2019-04-14T06:47:33.710Z,25.10
2019-04-14T06:48:33.679Z,26.10
2019-04-14T06:49:33.684Z,27.30
2019-04-14T06:50:33.669Z,26.40
2019-04-14T06:51:33.747Z,26.50
2019-04-14T06:52:33.866Z,26.50
2019-04-14T06:53:33.687Z,27.40
2019-04-14T06:54:33.693Z,27.10
2019-04-14T06:55:33.689Z,26.20
2019-04-14T06:56:33.603Z,26.30
2019-04-14T06:57:33.635Z,25.70
2019-04-14T06:58:33.590Z,27.10
2019-04-14T06:59:33.562Z,26.40
2019-04-14T07:00:33.632Z,26.20
2019-04-14T07:01:33.540Z,25.50
2019-04-14T07:02:33.542Z,26.00
2019-04-14T07:03:33.561Z,25.50
2019-04-14T07:04:33.656Z,24.80
2019-04-14T07:05:33.491Z,26.30
2019-04-14T07:06:33.492Z,24.90
2019-04-14T07:07:33.578Z,24.70
2019-04-14T07:08:33.678Z,24.30
2019-04-14T07:09:33.611Z,25.30
2019-04-14T07:10:33.474Z,24.80
2019-04-14T07:11:33.439Z,26.10
2019-04-14T07:12:33.474Z,25.80
2019-04-14T07:13:33.575Z,24.10
2019-04-14T07:14:33.439Z,24.80
2019-04-14T07:15:33.427Z,25.10
2019-04-14T07:16:33.391Z,24.80
2019-04-14T07:17:33.394Z,24.40
2019-04-14T07:18:33.384Z,24.30
2019-04-14T07:19:33.347Z,26.80
2019-04-14T07:20:33.355Z,26.10
2019-04-14T07:21:33.372Z,24.80
2019-04-14T07:22:33.313Z,24.40
2019-04-14T07:23:33.333Z,25.10
2019-04-14T07:24:33.291Z,24.20
2019-04-14T07:25:33.373Z,24.60
2019-04-14T07:26:33.311Z,25.10
2019-04-14T07:27:33.288Z,23.90
2019-04-14T07:28:33.268Z,24.90
2019-04-14T07:29:33.237Z,24.40
2019-04-14T07:30:33.235Z,24.10
2019-04-14T07:31:33.230Z,24.40
2019-04-14T07:32:33.206Z,24.90
2019-04-14T07:33:33.200Z,24.40
2019-04-14T07:34:36.110Z,23.20
2019-04-14T07:35:33.171Z,21.30
2019-04-14T07:36:33.223Z,22.30
2019-04-14T07:37:33.167Z,21.10
2019-04-14T07:38:33.156Z,21.90
2019-04-14T07:39:33.145Z,21.20
2019-04-14T07:40:33.172Z,21.80
2019-04-14T07:41:33.116Z,22.10
2019-04-14T07:42:33.148Z,21.10
2019-04-14T07:43:33.120Z,20.00
2019-04-14T07:44:33.087Z,20.40
2019-04-14T07:45:33.110Z,20.70
2019-04-14T07:46:33.251Z,19.60
2019-04-14T07:47:33.117Z,21.20
2019-04-14T07:48:33.042Z,20.50
2019-04-14T07:49:33.028Z,20.90
2019-04-14T07:50:33.018Z,20.10
2019-04-14T07:51:33.013Z,20.40
2019-04-14T07:52:33.030Z,19.40
2019-04-14T07:53:32.981Z,20.00
2019-04-14T07:54:32.975Z,19.40
2019-04-14T07:55:32.953Z,20.10
2019-04-14T07:56:32.988Z,19.30
2019-04-14T07:57:32.946Z,18.40
2019-04-14T07:58:32.928Z,19.70
2019-04-14T07:59:32.938Z,18.80
2019-04-14T08:00:32.912Z,19.50
2019-04-14T08:01:32.892Z,19.00
2019-04-14T08:02:32.896Z,19.70
2019-04-14T08:03:32.869Z,18.20
2019-04-14T08:04:32.861Z,18.40
2019-04-14T08:05:32.847Z,18.30
2019-04-14T08:06:32.868Z,17.30
2019-04-14T08:07:32.873Z,18.00
2019-04-14T08:08:32.820Z,18.20
2019-04-14T08:09:32.850Z,17.70
2019-04-14T08:10:32.794Z,17.50
2019-04-14T08:11:32.782Z,17.40
2019-04-14T08:12:35.124Z,17.70
2019-04-14T08:13:32.847Z,16.90
2019-04-14T08:14:32.758Z,17.20
2019-04-14T08:15:32.754Z,18.00
2019-04-14T08:16:32.727Z,17.50
2019-04-14T08:17:32.714Z,17.40
2019-04-14T08:18:32.731Z,16.70
2019-04-14T08:19:32.752Z,17.30
2019-04-14T08:20:32.682Z,15.40
2019-04-14T08:21:32.674Z,15.00
2019-04-14T08:22:32.680Z,15.10
2019-04-14T08:23:32.692Z,15.30
2019-04-14T08:24:32.653Z,15.00
2019-04-14T08:25:32.665Z,13.70
2019-04-14T08:26:32.623Z,14.30
2019-04-14T08:27:32.666Z,14.00
2019-04-14T08:28:32.599Z,14.60
2019-04-14T08:29:32.616Z,14.20
2019-04-14T08:30:32.593Z,14.60
2019-04-14T08:31:32.566Z,13.70
2019-04-14T08:32:32.555Z,13.80
2019-04-14T08:33:32.549Z,12.70
2019-04-14T08:34:32.558Z,14.00
2019-04-14T08:35:32.525Z,13.50
2019-04-14T08:36:33.354Z,14.20
2019-04-14T08:37:32.516Z,12.70
2019-04-14T08:38:32.490Z,14.30
2019-04-14T08:39:32.501Z,13.00
2019-04-14T08:40:32.475Z,14.10
2019-04-14T08:41:32.483Z,13.60
2019-04-14T08:42:32.517Z,13.30
2019-04-14T08:43:32.459Z,13.20
2019-04-14T08:44:32.426Z,12.80
2019-04-14T08:45:32.418Z,12.60
2019-04-14T08:46:32.443Z,13.10
2019-04-14T08:47:32.432Z,13.10
2019-04-14T08:48:32.407Z,13.10
2019-04-14T08:49:32.371Z,12.70
2019-04-14T08:50:39.360Z,12.60
2019-04-14T08:51:33.367Z,12.10
2019-04-14T08:52:32.376Z,13.00
2019-04-14T08:53:32.329Z,12.50
2019-04-14T08:54:32.320Z,12.80
2019-04-14T08:55:32.381Z,13.20
2019-04-14T08:56:32.363Z,12.30
2019-04-14T08:57:32.291Z,12.40
2019-04-14T08:58:32.318Z,12.50
2019-04-14T08:59:32.281Z,12.30
2019-04-14T09:00:32.317Z,12.50
2019-04-14T09:01:32.246Z,12.10
2019-04-14T09:02:32.248Z,12.40
2019-04-14T09:03:32.233Z,12.30
2019-04-14T09:04:32.216Z,11.70
2019-04-14T09:05:32.224Z,12.40
2019-04-14T09:06:32.264Z,12.60
2019-04-14T09:07:32.186Z,11.90
2019-04-14T09:08:32.193Z,12.10
2019-04-14T09:09:32.166Z,12.00
2019-04-14T09:10:32.153Z,11.90
2019-04-14T09:11:32.144Z,12.40
2019-04-14T09:12:32.179Z,12.00
2019-04-14T09:13:32.122Z,11.90
2019-04-14T09:14:32.123Z,11.80
2019-04-14T09:15:32.119Z,11.80
2019-04-14T09:16:32.091Z,13.00
2019-04-14T09:17:32.081Z,12.00
2019-04-14T09:18:32.084Z,12.30
2019-04-14T09:19:32.075Z,12.20
2019-04-14T09:20:32.052Z,11.40
2019-04-14T09:21:32.041Z,12.00
2019-04-14T09:22:32.031Z,12.10
2019-04-14T09:23:32.022Z,11.70
2019-04-14T09:24:32.053Z,12.10
2019-04-14T09:25:32.001Z,11.70
2019-04-14T09:26:31.991Z,11.90
2019-04-14T09:27:32.046Z,11.80
2019-04-14T09:28:32.010Z,12.20
2019-04-14T09:29:31.962Z,11.90
2019-04-14T09:30:31.990Z,11.50
2019-04-14T09:31:31.942Z,11.90
2019-04-14T09:32:31.930Z,11.80
2019-04-14T09:33:31.939Z,11.50
2019-04-14T09:34:31.928Z,12.30
2019-04-14T09:35:31.900Z,12.40
2019-04-14T09:36:31.931Z,12.00
2019-04-14T09:37:31.879Z,12.40
2019-04-14T09:38:31.908Z,12.40
2019-04-14T09:39:31.865Z,12.60
2019-04-14T09:40:31.849Z,11.40
2019-04-14T09:41:31.853Z,11.90
2019-04-14T09:42:31.891Z,11.60
2019-04-14T09:43:31.822Z,11.70
2019-04-14T09:44:31.809Z,11.70
2019-04-14T09:45:31.801Z,12.10
2019-04-14T09:46:31.803Z,11.70
2019-04-14T09:47:31.783Z,11.90
2019-04-14T09:48:31.872Z,12.10
2019-04-14T09:49:31.758Z,11.70
2019-04-14T09:50:31.748Z,12.00
2019-04-14T09:51:31.774Z,11.80
2019-04-14T09:52:31.729Z,11.50
2019-04-14T09:53:31.734Z,11.70
2019-04-14T09:54:31.766Z,12.30
2019-04-14T09:55:31.699Z,12.50
2019-04-14T09:56:31.687Z,12.50
2019-04-14T09:57:31.679Z,12.00
2019-04-14T09:58:31.668Z,12.10
2019-04-14T09:59:31.654Z,12.70
2019-04-14T10:00:31.699Z,12.10
2019-04-14T10:01:31.649Z,12.20
2019-04-14T10:02:31.633Z,11.90
2019-04-14T10:03:31.672Z,11.30
2019-04-14T10:04:31.601Z,10.90
2019-04-14T10:05:31.590Z,11.50
2019-04-14T10:06:31.638Z,11.40
2019-04-14T10:07:31.569Z,10.50
2019-04-14T10:08:31.568Z,10.70
2019-04-14T10:09:31.549Z,11.00
2019-04-14T10:10:31.537Z,10.80
2019-04-14T10:11:31.548Z,11.00
2019-04-14T10:12:31.555Z,10.60
2019-04-14T10:13:31.507Z,10.70
2019-04-14T10:14:31.509Z,10.50
2019-04-14T10:15:31.485Z,10.70
2019-04-14T10:16:31.486Z,10.90
2019-04-14T10:17:31.466Z,11.00
2019-04-14T10:18:31.495Z,11.10
2019-04-14T10:19:31.444Z,10.50
2019-04-14T10:20:31.439Z,10.50
2019-04-14T10:21:31.462Z,10.80
2019-04-14T10:22:34.068Z,10.20
2019-04-14T10:23:31.403Z,10.00
2019-04-14T10:24:31.427Z,10.20
2019-04-14T10:25:31.396Z,10.30
2019-04-14T10:26:31.374Z,10.10
2019-04-14T10:27:31.359Z,10.50
2019-04-14T10:28:31.350Z,10.10
2019-04-14T10:29:31.336Z,10.10
2019-04-14T10:30:31.355Z,10.00
2019-04-14T10:31:31.393Z,10.20
2019-04-14T10:32:31.309Z,9.30
2019-04-14T10:33:31.295Z,10.20
2019-04-14T10:34:31.295Z,9.60
2019-04-14T10:35:31.272Z,10.70
2019-04-14T10:36:31.277Z,10.20
2019-04-14T10:37:31.281Z,10.20
2019-04-14T10:38:31.243Z,10.10
2019-04-14T10:39:31.230Z,10.00
2019-04-14T10:40:31.219Z,9.80
2019-04-14T10:41:31.225Z,10.10
2019-04-14T10:42:31.198Z,10.00
2019-04-14T10:43:31.227Z,10.10
2019-04-14T10:44:31.177Z,9.90
2019-04-14T10:45:31.166Z,10.10
2019-04-14T10:46:31.157Z,9.80
2019-04-14T10:47:31.167Z,10.10
2019-04-14T10:48:31.136Z,9.40
2019-04-14T10:49:31.145Z,10.00
2019-04-14T10:50:31.416Z,10.00
2019-04-14T10:51:33.955Z,9.60
2019-04-14T10:52:31.102Z,9.80
2019-04-14T10:53:31.091Z,10.00
2019-04-14T10:54:31.071Z,9.90
2019-04-14T10:55:31.078Z,9.60
2019-04-14T10:56:31.049Z,10.00
2019-04-14T10:57:31.064Z,9.70
2019-04-14T10:58:31.038Z,10.00
2019-04-14T10:59:31.046Z,10.20
2019-04-14T11:00:31.009Z,10.10
2019-04-14T11:01:31.004Z,10.20
2019-04-14T11:02:30.985Z,9.30
2019-04-14T11:03:30.989Z,9.70
2019-04-14T11:04:30.963Z,10.20
2019-04-14T11:05:30.952Z,10.40
2019-04-14T11:06:30.941Z,10.50
2019-04-14T11:07:30.946Z,10.90
2019-04-14T11:08:30.919Z,10.30
2019-04-14T11:09:30.930Z,10.30
2019-04-14T11:10:30.898Z,11.10
2019-04-14T11:11:30.899Z,10.40
2019-04-14T11:12:30.901Z,9.90
2019-04-14T11:13:30.866Z,10.30
2019-04-14T11:14:30.857Z,10.40
2019-04-14T11:15:30.857Z,9.90
2019-04-14T11:16:30.835Z,9.60
2019-04-14T11:17:30.824Z,10.20
2019-04-14T11:18:30.855Z,10.20
2019-04-14T11:19:30.802Z,10.00
2019-04-14T11:20:30.820Z,10.00
2019-04-14T11:21:42.012Z,9.90
2019-04-14T11:22:31.916Z,10.50
2019-04-14T11:23:30.862Z,10.60
2019-04-14T11:24:30.772Z,10.30
2019-04-14T11:25:30.749Z,10.20
2019-04-14T11:26:30.743Z,10.20
2019-04-14T11:27:30.734Z,9.80
2019-04-14T11:28:30.708Z,10.50
2019-04-14T11:29:30.703Z,10.20
2019-04-14T11:30:30.786Z,10.00
2019-04-14T11:31:30.676Z,10.40
2019-04-14T11:32:30.660Z,10.50
2019-04-14T11:33:30.689Z,10.40
2019-04-14T11:34:30.665Z,10.00
2019-04-14T11:35:30.639Z,10.30
2019-04-14T11:36:30.619Z,10.10
2019-04-14T11:37:30.606Z,10.40
2019-04-14T11:38:30.657Z,10.00
2019-04-14T11:39:30.590Z,10.60
2019-04-14T11:40:30.585Z,10.60
2019-04-14T11:41:30.580Z,10.10
2019-04-14T11:42:30.554Z,11.90
2019-04-14T11:43:30.558Z,10.80
2019-04-14T11:44:30.578Z,12.40
2019-04-14T11:45:30.546Z,10.80
2019-04-14T11:46:30.511Z,10.90
2019-04-14T11:47:30.497Z,10.40
2019-04-14T11:48:30.485Z,11.10
2019-04-14T11:49:30.501Z,10.90
2019-04-14T11:50:30.583Z,10.70
2019-04-14T11:51:30.458Z,10.20
2019-04-14T11:52:30.454Z,10.40
2019-04-14T11:53:30.477Z,10.20
2019-04-14T11:54:30.441Z,10.90
2019-04-14T11:55:30.413Z,10.20
2019-04-14T11:56:30.508Z,10.50
2019-04-14T11:57:30.411Z,9.70
2019-04-14T11:58:30.388Z,10.10
2019-04-14T11:59:30.374Z,9.70
2019-04-14T12:00:30.371Z,9.00
2019-04-14T12:01:30.374Z,9.70
2019-04-14T12:02:30.364Z,9.70
2019-04-14T12:03:32.286Z,9.90
2019-04-14T12:04:30.348Z,10.40
2019-04-14T12:05:30.305Z,9.70
2019-04-14T12:06:30.315Z,10.00
2019-04-14T12:07:30.302Z,9.90
2019-04-14T12:08:30.310Z,10.60
2019-04-14T12:09:30.264Z,10.50
2019-04-14T12:10:30.265Z,10.50
2019-04-14T12:11:30.239Z,9.60
2019-04-14T12:12:30.241Z,10.70
2019-04-14T12:13:30.232Z,10.30
2019-04-14T12:14:30.239Z,10.70
2019-04-14T12:15:30.247Z,10.10
2019-04-14T12:16:30.185Z,10.60
2019-04-14T12:17:30.175Z,10.20
2019-04-14T12:18:30.164Z,9.80
2019-04-14T12:19:30.181Z,10.50
2019-04-14T12:20:30.139Z,10.90
2019-04-14T12:21:30.158Z,10.30
2019-04-14T12:22:30.184Z,10.30
2019-04-14T12:23:30.258Z,10.30
2019-04-14T12:24:30.119Z,10.00
2019-04-14T12:25:30.105Z,10.80
2019-04-14T12:26:30.131Z,10.30
2019-04-14T12:27:30.062Z,10.10
2019-04-14T12:28:30.063Z,10.80
2019-04-14T12:29:30.485Z,10.70
2019-04-14T12:30:31.218Z,9.60
2019-04-14T12:31:30.956Z,9.70
2019-04-14T12:32:30.027Z,10.00
2019-04-14T12:33:30.014Z,9.90
2019-04-14T12:34:29.989Z,10.60
2019-04-14T12:35:29.986Z,9.70
2019-04-14T12:36:29.979Z,10.00
2019-04-14T12:37:29.961Z,10.00
2019-04-14T12:38:29.986Z,9.40
2019-04-14T12:39:29.953Z,9.60
2019-04-14T12:40:29.926Z,9.90
2019-04-14T12:41:30.994Z,9.80
2019-04-14T12:42:29.929Z,9.60
2019-04-14T12:43:29.902Z,9.90
2019-04-14T12:44:29.884Z,10.10
2019-04-14T12:45:29.896Z,10.10
2019-04-14T12:46:29.887Z,10.30
2019-04-14T12:47:29.844Z,9.50
2019-04-14T12:48:29.832Z,10.30
2019-04-14T12:49:29.918Z,10.00
2019-04-14T12:50:29.810Z,10.30
2019-04-14T12:51:29.814Z,10.10
2019-04-14T12:52:29.841Z,9.60
2019-04-14T12:53:29.779Z,10.50
2019-04-14T12:54:29.780Z,10.00
2019-04-14T12:55:29.790Z,9.90
2019-04-14T12:56:29.769Z,10.30
2019-04-14T12:57:29.742Z,9.80
2019-04-14T12:58:29.764Z,9.60
2019-04-14T12:59:29.727Z,9.50
2019-04-14T13:00:29.716Z,10.00
2019-04-14T13:01:29.707Z,10.60
2019-04-14T13:02:29.684Z,10.60
2019-04-14T13:03:29.674Z,9.90
2019-04-14T13:04:29.658Z,10.30
2019-04-14T13:05:29.716Z,9.90
2019-04-14T13:06:29.642Z,9.80
2019-04-14T13:07:29.628Z,9.50
2019-04-14T13:08:29.616Z,9.80
2019-04-14T13:09:29.603Z,8.90
2019-04-14T13:10:29.608Z,9.70
2019-04-14T13:11:29.621Z,9.40
2019-04-14T13:12:29.570Z,9.40
2019-04-14T13:13:29.559Z,8.90
2019-04-14T13:14:29.549Z,9.30
2019-04-14T13:15:29.569Z,9.90
2019-04-14T13:16:29.542Z,9.10
2019-04-14T13:17:29.550Z,9.30